createdAt,value
2023-03-24T00:02:11.313Z,99344.08
2023-03-24T00:04:42.691Z,99349.45
2023-03-24T00:07:14.432Z,99345.75
2023-03-24T00:09:42.087Z,99347.73
2023-03-24T00:12:10.233Z,99345.83
2023-03-24T00:14:38.733Z,99346.66
2023-03-24T00:17:05.982Z,99350.52
2023-03-24T00:19:33.964Z,99349.47
2023-03-24T00:22:01.225Z,99348.80
2023-03-24T00:24:28.506Z,99350.20
2023-03-24T00:26:57.930Z,99354.25
2023-03-24T00:29:25.921Z,99351.48
2023-03-24T00:31:53.314Z,99356.38
2023-03-24T00:34:21.704Z,99352.77
2023-03-24T00:36:49.982Z,99352.65
2023-03-24T00:39:17.969Z,99349.60
2023-03-24T00:41:45.982Z,99346.02
2023-03-24T00:44:18.268Z,99343.13
2023-03-24T00:46:55.542Z,99343.27
2023-03-24T00:49:42.145Z,99341.58
2023-03-24T00:52:12.080Z,99339.11
2023-03-24T00:54:39.991Z,99341.77
2023-03-24T00:57:08.106Z,99336.99
2023-03-24T00:59:42.385Z,99336.52
2023-03-24T01:02:12.333Z,99331.06
2023-03-24T01:04:41.109Z,99332.05
2023-03-24T01:07:11.016Z,99331.23
2023-03-24T01:09:38.332Z,99331.48
2023-03-24T01:12:07.170Z,99332.91
2023-03-24T01:14:34.850Z,99332.88
2023-03-24T01:17:03.711Z,99331.30
2023-03-24T01:19:33.251Z,99330.47
2023-03-24T01:22:00.685Z,99330.59
2023-03-24T01:24:28.166Z,99328.20
2023-03-24T01:26:55.270Z,99323.86
2023-03-24T01:29:22.427Z,99324.09
2023-03-24T01:31:49.694Z,99326.68
2023-03-24T01:34:17.100Z,99331.23
2023-03-24T01:36:44.279Z,99324.36
2023-03-24T01:39:11.846Z,99327.18
2023-03-24T01:41:42.460Z,99328.84
2023-03-24T01:44:27.487Z,99322.30
2023-03-24T01:46:54.668Z,99318.70
2023-03-24T01:49:23.651Z,99315.25
2023-03-24T01:51:53.786Z,99314.06
2023-03-24T01:54:27.548Z,99314.08
2023-03-24T01:57:10.231Z,99306.40
2023-03-24T01:59:42.300Z,99310.61
2023-03-24T02:02:14.574Z,99309.27
2023-03-24T02:04:56.093Z,99310.55
2023-03-24T02:07:33.215Z,99307.48
2023-03-24T02:10:01.192Z,99306.27
2023-03-24T02:12:28.445Z,99307.88
2023-03-24T02:14:56.730Z,99307.76
2023-03-24T02:17:41.191Z,99305.41
2023-03-24T02:20:47.897Z,99305.04
2023-03-24T02:23:39.119Z,99306.81
2023-03-24T02:26:42.697Z,99301.81
2023-03-24T02:29:40.272Z,99304.02
2023-03-24T02:32:36.087Z,99303.00
2023-03-24T02:35:20.953Z,99304.53
2023-03-24T02:38:16.403Z,99301.51
2023-03-24T02:40:48.287Z,99302.83
2023-03-24T02:43:27.029Z,99306.05
2023-03-24T02:46:13.609Z,99306.09
2023-03-24T02:48:50.520Z,99304.20
2023-03-24T02:51:24.854Z,99297.13
2023-03-24T02:54:03.320Z,99298.70
2023-03-24T02:56:38.089Z,99302.70
2023-03-24T02:59:18.124Z,99298.17
2023-03-24T03:01:54.676Z,99298.67
2023-03-24T03:05:01.076Z,99301.83
2023-03-24T03:07:33.687Z,99304.33
2023-03-24T03:10:06.627Z,99308.04
2023-03-24T03:12:38.018Z,99306.05
2023-03-24T03:15:11.498Z,99309.14
2023-03-24T03:17:43.497Z,99308.40
2023-03-24T03:20:17.754Z,99316.81
2023-03-24T03:22:50.401Z,99320.76
2023-03-24T03:25:22.857Z,99325.44
2023-03-24T03:27:53.063Z,99330.08
2023-03-24T03:30:25.036Z,99330.58
2023-03-24T03:32:56.615Z,99330.21
2023-03-24T03:35:30.759Z,99326.40
2023-03-24T03:38:07.805Z,99320.67
2023-03-24T03:40:42.859Z,99322.48
2023-03-24T03:43:15.644Z,99316.23
2023-03-24T03:45:43.331Z,99317.73
2023-03-24T03:48:11.837Z,99314.84
2023-03-24T03:50:40.206Z,99313.70
2023-03-24T03:53:08.481Z,99312.38
2023-03-24T03:55:36.660Z,99307.38
2023-03-24T03:58:04.872Z,99311.00
2023-03-24T04:00:40.458Z,99312.52
2023-03-24T04:03:44.551Z,99315.44
2023-03-24T04:06:27.234Z,99315.14
2023-03-24T04:09:04.438Z,99311.48
2023-03-24T04:11:44.642Z,99313.63
2023-03-24T04:14:49.768Z,99309.40
2023-03-24T04:17:47.175Z,99308.66
2023-03-24T04:20:26.181Z,99306.59
2023-03-24T04:23:04.665Z,99306.45
2023-03-24T04:25:41.197Z,99306.25
2023-03-24T04:28:21.818Z,99304.14
2023-03-24T04:30:52.376Z,99296.81
2023-03-24T04:33:29.147Z,99296.73
2023-03-24T04:36:06.684Z,99295.08
2023-03-24T04:38:41.782Z,99290.27
2023-03-24T04:41:37.926Z,99281.88
2023-03-24T04:44:13.547Z,99283.33
2023-03-24T04:46:56.172Z,99279.06
2023-03-24T04:49:43.638Z,99272.36
2023-03-24T04:52:12.355Z,99273.06
2023-03-24T04:54:50.975Z,99271.91
2023-03-24T04:57:21.625Z,99274.33
2023-03-24T04:59:52.844Z,99271.67
2023-03-24T05:02:21.882Z,99272.21
2023-03-24T05:05:14.745Z,99274.61
2023-03-24T05:07:45.925Z,99277.95
2023-03-24T05:10:14.836Z,99276.16
2023-03-24T05:12:46.997Z,99271.77
2023-03-24T05:15:20.656Z,99267.70
2023-03-24T05:17:51.951Z,99266.57
2023-03-24T05:20:19.946Z,99268.66
2023-03-24T05:22:49.984Z,99263.41
2023-03-24T05:25:17.385Z,99262.56
2023-03-24T05:27:44.874Z,99256.94
2023-03-24T05:30:24.423Z,99257.39
2023-03-24T05:32:54.507Z,99263.71
2023-03-24T05:35:21.779Z,99257.00
2023-03-24T05:37:49.426Z,99251.79
2023-03-24T05:40:16.982Z,99247.14
2023-03-24T05:42:54.878Z,99237.78
2023-03-24T05:45:25.265Z,99238.00
2023-03-24T05:47:52.782Z,99239.74
2023-03-24T05:50:24.938Z,99242.31
2023-03-24T05:52:52.739Z,99244.17
2023-03-24T05:55:42.062Z,99246.40
2023-03-24T05:58:28.734Z,99241.31
2023-03-24T06:00:57.933Z,99245.11
2023-03-24T06:03:34.800Z,99245.88
2023-03-24T06:06:15.000Z,99242.67
2023-03-24T06:08:45.203Z,99237.17
2023-03-24T06:11:13.859Z,99234.20
2023-03-24T06:13:49.232Z,99229.60
2023-03-24T06:16:18.977Z,99229.42
2023-03-24T06:18:56.141Z,99234.38
2023-03-24T06:21:42.375Z,99236.05
2023-03-24T06:24:10.939Z,99242.83
2023-03-24T06:26:38.386Z,99240.59
2023-03-24T06:29:05.850Z,99233.55
2023-03-24T06:31:36.221Z,99238.68
2023-03-24T06:34:03.563Z,99236.83
2023-03-24T06:36:31.788Z,99238.31
2023-03-24T06:38:59.071Z,99240.52
2023-03-24T06:41:26.775Z,99240.83
2023-03-24T06:43:59.071Z,99234.73
2023-03-24T06:46:26.384Z,99236.27
2023-03-24T06:48:53.883Z,99233.21
2023-03-24T06:51:21.724Z,99227.88
2023-03-24T06:53:49.041Z,99233.45
2023-03-24T06:56:20.032Z,99234.92
2023-03-24T06:58:52.002Z,99230.82
2023-03-24T07:01:26.345Z,99232.91
2023-03-24T07:04:17.236Z,99237.73
2023-03-24T07:07:44.883Z,99233.00
2023-03-24T07:10:18.446Z,99238.99
2023-03-24T07:12:45.973Z,99241.89
2023-03-24T07:15:17.613Z,99248.45
2023-03-24T07:17:45.975Z,99246.77
2023-03-24T07:20:52.321Z,99253.13
2023-03-24T07:23:21.574Z,99244.58
2023-03-24T07:25:53.049Z,99244.89
2023-03-24T07:28:49.247Z,99247.29
2023-03-24T07:31:41.106Z,99243.52
2023-03-24T07:34:12.569Z,99245.27
2023-03-24T07:36:40.602Z,99245.35
2023-03-24T07:39:11.638Z,99244.48
2023-03-24T07:41:39.095Z,99244.75
2023-03-24T07:44:13.418Z,99235.71
2023-03-24T07:46:45.821Z,99230.08
2023-03-24T07:49:19.430Z,99228.09
2023-03-24T07:52:13.474Z,99222.10
2023-03-24T07:54:43.902Z,99216.03
2023-03-24T07:57:15.908Z,99220.77
2023-03-24T07:59:43.532Z,99212.73
2023-03-24T08:02:20.332Z,99211.63
2023-03-24T08:05:14.949Z,99208.77
2023-03-24T08:08:14.606Z,99199.47
2023-03-24T08:11:02.542Z,99199.39
2023-03-24T08:13:30.203Z,99199.78
2023-03-24T08:15:58.089Z,99196.94
2023-03-24T08:18:35.302Z,99196.28
2023-03-24T08:21:02.926Z,99198.67
2023-03-24T08:23:50.762Z,99191.69
2023-03-24T08:26:27.021Z,99188.55
2023-03-24T08:28:54.784Z,99185.86
2023-03-24T08:31:34.496Z,99177.90
2023-03-24T08:34:02.193Z,99177.70
2023-03-24T08:36:32.110Z,99168.79
2023-03-24T08:39:01.667Z,99164.95
2023-03-24T08:41:35.416Z,99161.73
2023-03-24T08:44:08.569Z,99153.04
2023-03-24T08:46:38.903Z,99151.77
2023-03-24T08:49:06.392Z,99146.34
2023-03-24T08:51:34.939Z,99134.48
2023-03-24T08:54:03.774Z,99138.04
2023-03-24T08:56:31.456Z,99128.64
2023-03-24T08:58:59.388Z,99123.64
2023-03-24T09:01:27.705Z,99119.84
2023-03-24T09:03:55.026Z,99121.06
2023-03-24T09:06:22.175Z,99116.34
2023-03-24T09:08:57.651Z,99118.32
2023-03-24T09:11:25.708Z,99119.66
2023-03-24T09:13:53.348Z,99101.54
2023-03-24T09:16:22.086Z,99091.88
2023-03-24T09:18:49.378Z,99088.36
2023-03-24T09:21:17.158Z,99088.31
2023-03-24T09:23:44.654Z,99086.88
2023-03-24T09:26:11.993Z,99087.15
2023-03-24T09:28:39.144Z,99068.91
2023-03-24T09:31:08.202Z,99069.29
2023-03-24T09:33:35.907Z,99060.65
2023-03-24T09:36:05.947Z,99071.77
2023-03-24T09:38:35.421Z,99064.59
2023-03-24T09:41:04.192Z,99063.73
2023-03-24T09:43:37.278Z,99059.20
2023-03-24T09:46:12.545Z,99047.36
2023-03-24T09:48:46.941Z,99054.02
2023-03-24T09:51:22.258Z,99055.41
2023-03-24T09:53:55.934Z,99047.38
2023-03-24T09:56:34.327Z,99040.30
2023-03-24T09:59:08.266Z,99041.67
2023-03-24T10:01:37.098Z,99047.06
2023-03-24T10:04:05.801Z,99041.52
2023-03-24T10:06:38.927Z,99032.40
2023-03-24T10:09:22.959Z,99032.58
2023-03-24T10:12:00.531Z,99035.42
2023-03-24T10:14:54.656Z,99027.37
2023-03-24T10:17:31.751Z,99026.94
2023-03-24T10:20:07.897Z,99025.24
2023-03-24T10:22:41.202Z,99021.27
2023-03-24T10:25:17.036Z,99020.14
2023-03-24T10:27:48.774Z,99013.13
2023-03-24T10:30:19.468Z,99006.45
2023-03-24T10:32:47.490Z,99011.48
2023-03-24T10:35:20.918Z,99005.04
2023-03-24T10:37:49.164Z,99006.88
2023-03-24T10:40:22.428Z,99008.69
2023-03-24T10:43:07.358Z,98995.58
2023-03-24T10:45:41.406Z,99000.77
2023-03-24T10:48:14.292Z,98998.16
2023-03-24T10:50:46.436Z,99004.80
2023-03-24T10:53:20.863Z,99003.27
2023-03-24T10:55:51.104Z,98998.73
2023-03-24T10:58:29.323Z,99001.38
2023-03-24T11:00:58.257Z,98997.67
2023-03-24T11:03:32.255Z,98999.20
2023-03-24T11:06:03.935Z,99002.79
2023-03-24T11:08:42.219Z,98993.89
2023-03-24T11:11:31.096Z,99002.21
2023-03-24T11:14:02.894Z,98998.61
2023-03-24T11:16:33.044Z,98993.00
2023-03-24T11:19:03.115Z,98988.35
2023-03-24T11:21:32.662Z,98983.64
2023-03-24T11:24:04.054Z,98990.04
2023-03-24T11:26:35.896Z,98981.39
2023-03-24T11:29:07.803Z,98976.35
2023-03-24T11:31:38.515Z,98975.38
2023-03-24T11:34:12.085Z,98969.54
2023-03-24T11:36:52.952Z,98965.61
2023-03-24T11:39:24.370Z,98958.27
2023-03-24T11:42:03.140Z,98948.70
2023-03-24T11:44:43.035Z,98946.90
2023-03-24T11:47:14.798Z,98942.76
2023-03-24T11:49:47.798Z,98939.55
2023-03-24T11:52:23.018Z,98935.63
2023-03-24T11:54:50.394Z,98933.14
2023-03-24T11:57:23.785Z,98925.06
2023-03-24T11:59:58.418Z,98923.40
2023-03-24T12:02:50.638Z,98924.54
2023-03-24T12:05:35.419Z,98922.71
2023-03-24T12:08:15.062Z,98920.52
2023-03-24T12:11:06.511Z,98914.06
2023-03-24T12:13:40.585Z,98908.89
2023-03-24T12:16:32.244Z,98902.06
2023-03-24T12:19:20.760Z,98902.52
2023-03-24T12:21:59.688Z,98898.99
2023-03-24T12:24:40.355Z,98890.90
2023-03-24T12:27:15.962Z,98886.10
2023-03-24T12:30:00.980Z,98882.75
2023-03-24T12:32:57.769Z,98880.73
2023-03-24T12:35:48.220Z,98880.13
2023-03-24T12:38:35.433Z,98880.86
2023-03-24T12:41:24.931Z,98857.91
2023-03-24T12:44:06.092Z,98866.89
2023-03-24T12:46:47.578Z,98851.21
2023-03-24T12:49:31.423Z,98853.75
2023-03-24T12:52:16.893Z,98856.06
2023-03-24T12:54:53.291Z,98852.84
2023-03-24T12:57:24.218Z,98851.31
2023-03-24T12:59:59.403Z,98855.95
2023-03-24T13:02:32.287Z,98850.89
2023-03-24T13:05:05.728Z,98853.09
2023-03-24T13:07:39.439Z,98845.91
2023-03-24T13:10:15.551Z,98850.55
2023-03-24T13:12:47.093Z,98848.66
2023-03-24T13:15:22.533Z,98836.48
2023-03-24T13:17:54.559Z,98835.95
2023-03-24T13:20:27.539Z,98828.91
2023-03-24T13:22:56.747Z,98830.34
2023-03-24T13:25:32.383Z,98822.96
2023-03-24T13:28:06.047Z,98818.36
2023-03-24T13:30:38.201Z,98823.64
2023-03-24T13:33:11.987Z,98813.02
2023-03-24T13:35:56.252Z,98805.13
2023-03-24T13:38:33.722Z,98802.08
2023-03-24T13:41:05.032Z,98802.55
2023-03-24T13:43:35.031Z,98797.83
2023-03-24T13:46:11.009Z,98796.43
2023-03-24T13:48:41.986Z,98799.41
2023-03-24T13:51:19.003Z,98784.95
2023-03-24T13:53:51.748Z,98787.27
2023-03-24T13:56:29.167Z,98787.32
2023-03-24T13:59:25.465Z,98787.80
2023-03-24T14:02:27.986Z,98779.61
2023-03-24T14:05:09.386Z,98777.77
2023-03-24T14:07:48.195Z,98778.08
2023-03-24T14:10:43.165Z,98772.05
2023-03-24T14:13:23.430Z,98772.77
2023-03-24T14:15:53.197Z,98767.62
2023-03-24T14:18:42.830Z,98772.98
2023-03-24T14:21:11.382Z,98771.95
2023-03-24T14:23:41.507Z,98765.56
2023-03-24T14:26:13.662Z,98759.92
2023-03-24T14:28:42.720Z,98752.85
2023-03-24T14:31:26.592Z,98758.14
2023-03-24T14:34:11.124Z,98747.67
2023-03-24T14:36:41.615Z,98742.46
2023-03-24T14:39:25.932Z,98735.67
2023-03-24T14:41:53.496Z,98737.68
2023-03-24T14:44:56.891Z,98737.38
2023-03-24T14:47:29.176Z,98731.23
2023-03-24T14:49:59.086Z,98727.53
2023-03-24T14:52:30.344Z,98724.98
2023-03-24T14:55:00.163Z,98720.80
2023-03-24T14:57:30.161Z,98714.68
2023-03-24T15:00:12.066Z,98718.04
2023-03-24T15:02:42.106Z,98707.36
2023-03-24T15:05:32.707Z,98708.22
2023-03-24T15:08:08.620Z,98705.77
2023-03-24T15:10:40.726Z,98703.02
2023-03-24T15:13:25.757Z,98696.70
2023-03-24T15:15:53.352Z,98690.54
2023-03-24T15:18:22.339Z,98689.98
2023-03-24T15:20:50.180Z,98687.85
2023-03-24T15:23:22.346Z,98687.77
2023-03-24T15:25:49.610Z,98685.15
2023-03-24T15:28:23.128Z,98681.00
2023-03-24T15:30:51.368Z,98687.09
2023-03-24T15:33:19.246Z,98679.05
2023-03-24T15:35:47.587Z,98674.13
2023-03-24T15:38:28.705Z,98674.88
2023-03-24T15:41:01.722Z,98675.57
2023-03-24T15:43:29.184Z,98679.89
2023-03-24T15:46:11.201Z,98678.46
2023-03-24T15:48:41.206Z,98674.45
2023-03-24T15:51:11.787Z,98668.05
2023-03-24T15:53:44.895Z,98666.98
2023-03-24T15:56:20.834Z,98662.91
2023-03-24T15:59:08.211Z,98665.28
2023-03-24T16:01:36.323Z,98660.55
2023-03-24T16:04:06.195Z,98661.35
2023-03-24T16:06:36.962Z,98659.70
2023-03-24T16:09:06.746Z,98654.80
2023-03-24T16:11:33.822Z,98650.70
2023-03-24T16:14:02.564Z,98649.29
2023-03-24T16:16:31.602Z,98651.06
2023-03-24T16:18:59.585Z,98653.12
2023-03-24T16:21:28.360Z,98645.91
2023-03-24T16:23:57.474Z,98639.64
2023-03-24T16:26:29.714Z,98641.41
2023-03-24T16:29:01.827Z,98640.32
2023-03-24T16:31:30.948Z,98641.08
2023-03-24T16:33:59.441Z,98642.45
2023-03-24T16:36:27.603Z,98642.14
2023-03-24T16:38:55.976Z,98651.83
2023-03-24T16:41:23.317Z,98661.67
2023-03-24T16:43:50.437Z,98670.59
2023-03-24T16:46:19.971Z,98684.38
2023-03-24T16:48:47.566Z,98694.20
2023-03-24T16:51:16.828Z,98696.93
2023-03-24T16:53:45.709Z,98710.64
2023-03-24T16:56:16.051Z,98719.02
2023-03-24T16:58:43.391Z,98727.31
2023-03-24T17:01:27.139Z,98733.52
2023-03-24T17:03:56.045Z,98739.00
2023-03-24T17:06:23.986Z,98745.33
2023-03-24T17:08:51.342Z,98750.77
2023-03-24T17:11:21.685Z,98752.81
2023-03-24T17:13:48.871Z,98758.67
2023-03-24T17:16:17.136Z,98757.06
2023-03-24T17:18:44.550Z,98763.13
2023-03-24T17:21:16.823Z,98770.87
2023-03-24T17:23:47.149Z,98769.84
2023-03-24T17:26:14.406Z,98770.22
2023-03-24T17:28:45.244Z,98766.29
2023-03-24T17:31:12.759Z,98767.84
2023-03-24T17:33:40.167Z,98764.63
2023-03-24T17:36:09.488Z,98766.53
2023-03-24T17:38:37.832Z,98764.51
2023-03-24T17:41:15.013Z,98762.23
2023-03-24T17:43:42.347Z,98762.79
2023-03-24T17:46:10.100Z,98758.02
2023-03-24T17:48:37.869Z,98758.70
2023-03-24T17:51:06.242Z,98759.33
2023-03-24T17:53:33.992Z,98758.34
2023-03-24T17:56:07.235Z,98763.91
2023-03-24T17:58:36.566Z,98767.76
2023-03-24T18:01:08.344Z,98769.16
2023-03-24T18:03:38.296Z,98766.66
2023-03-24T18:06:15.768Z,98771.24
2023-03-24T18:08:43.983Z,98758.89
2023-03-24T18:11:15.254Z,98761.09
2023-03-24T18:13:43.222Z,98750.83
2023-03-24T18:16:20.635Z,98749.65
2023-03-24T18:18:50.108Z,98741.75
2023-03-24T18:21:17.587Z,98735.64
2023-03-24T18:23:46.752Z,98731.65
2023-03-24T18:26:14.549Z,98730.08
2023-03-24T18:28:42.582Z,98731.13
2023-03-24T18:31:15.531Z,98727.63
2023-03-24T18:33:43.065Z,98724.17
2023-03-24T18:36:21.365Z,98730.44
2023-03-24T18:38:51.861Z,98725.04
2023-03-24T18:41:19.422Z,98736.05
2023-03-24T18:43:47.581Z,98743.02
2023-03-24T18:46:16.367Z,98744.13
2023-03-24T18:48:45.077Z,98746.52
2023-03-24T18:51:13.096Z,98743.36
2023-03-24T18:53:43.484Z,98746.76
2023-03-24T18:56:12.379Z,98747.02
2023-03-24T18:58:40.055Z,98741.89
2023-03-24T19:01:14.055Z,98736.27
2023-03-24T19:03:43.026Z,98728.95
2023-03-24T19:06:12.848Z,98725.85
2023-03-24T19:08:51.884Z,98723.73
2023-03-24T19:11:19.440Z,98721.88
2023-03-24T19:13:50.768Z,98725.38
2023-03-24T19:16:19.377Z,98723.45
2023-03-24T19:18:48.725Z,98723.89
2023-03-24T19:21:17.020Z,98723.17
2023-03-24T19:23:45.048Z,98724.60
2023-03-24T19:26:12.933Z,98724.45
2023-03-24T19:28:40.234Z,98721.24
2023-03-24T19:31:12.055Z,98725.98
2023-03-24T19:33:40.007Z,98726.81
2023-03-24T19:36:09.101Z,98728.39
2023-03-24T19:38:37.336Z,98723.89
2023-03-24T19:41:08.458Z,98724.49
2023-03-24T19:43:36.993Z,98728.66
2023-03-24T19:46:05.580Z,98727.65
2023-03-24T19:48:33.650Z,98723.36
2023-03-24T19:51:01.079Z,98720.78
2023-03-24T19:53:29.505Z,98719.63
2023-03-24T19:55:58.911Z,98713.86
2023-03-24T19:58:26.931Z,98716.04
2023-03-24T20:00:57.355Z,98712.61
2023-03-24T20:03:25.309Z,98713.52
2023-03-24T20:06:09.200Z,98709.63
2023-03-24T20:08:36.837Z,98704.12
2023-03-24T20:11:10.173Z,98706.52
2023-03-24T20:13:37.509Z,98707.82
2023-03-24T20:16:05.176Z,98710.81
2023-03-24T20:18:33.638Z,98709.21
2023-03-24T20:21:06.433Z,98724.88
2023-03-24T20:23:33.760Z,98738.73
2023-03-24T20:26:02.812Z,98744.00
2023-03-24T20:28:30.417Z,98749.81
2023-03-24T20:31:03.019Z,98752.58
2023-03-24T20:33:30.946Z,98755.12
2023-03-24T20:36:01.034Z,98759.95
2023-03-24T20:38:28.536Z,98764.26
2023-03-24T20:41:03.829Z,98772.09
2023-03-24T20:43:34.994Z,98777.50
2023-03-24T20:46:02.292Z,98773.91
2023-03-24T20:48:29.477Z,98773.74
2023-03-24T20:50:56.524Z,98772.61
2023-03-24T20:53:25.022Z,98772.88
2023-03-24T20:56:01.096Z,98773.14
2023-03-24T20:58:28.692Z,98774.77
2023-03-24T21:00:56.163Z,98782.38
2023-03-24T21:03:24.082Z,98789.65
2023-03-24T21:05:51.555Z,98798.09
2023-03-24T21:08:18.873Z,98801.27
2023-03-24T21:10:46.101Z,98804.64
2023-03-24T21:13:13.299Z,98808.41
2023-03-24T21:15:45.779Z,98818.45
2023-03-24T21:18:13.287Z,98814.44
2023-03-24T21:20:42.449Z,98805.85
2023-03-24T21:23:10.099Z,98811.82
2023-03-24T21:25:38.001Z,98827.35
2023-03-24T21:28:06.118Z,98838.33
2023-03-24T21:30:33.235Z,98836.63
2023-03-24T21:33:02.096Z,98826.42
2023-03-24T21:35:30.348Z,98818.20
2023-03-24T21:37:57.462Z,98803.88
2023-03-24T21:40:26.500Z,98785.09
2023-03-24T21:42:54.460Z,98781.92
2023-03-24T21:45:24.259Z,98780.52
2023-03-24T21:47:55.410Z,98783.85
2023-03-24T21:50:24.087Z,98779.49
2023-03-24T21:52:51.669Z,98773.00
2023-03-24T21:55:20.682Z,98779.02
2023-03-24T21:57:48.684Z,98781.58
2023-03-24T22:00:19.586Z,98783.56
2023-03-24T22:02:50.043Z,98787.45
2023-03-24T22:05:19.448Z,98792.96
2023-03-24T22:07:47.138Z,98804.02
2023-03-24T22:10:15.570Z,98812.08
2023-03-24T22:12:44.376Z,98816.23
2023-03-24T22:15:14.066Z,98813.81
2023-03-24T22:17:42.252Z,98806.09
2023-03-24T22:20:12.391Z,98807.44
2023-03-24T22:22:41.073Z,98811.55
2023-03-24T22:25:10.611Z,98816.73
2023-03-24T22:27:38.308Z,98820.42
2023-03-24T22:30:06.999Z,98811.17
2023-03-24T22:32:34.568Z,98809.30
2023-03-24T22:35:02.174Z,98819.48
2023-03-24T22:37:29.345Z,98836.41
2023-03-24T22:39:56.532Z,98830.79
2023-03-24T22:42:23.659Z,98835.74
2023-03-24T22:44:50.774Z,98842.88
2023-03-24T22:47:17.920Z,98842.79
2023-03-24T22:49:45.073Z,98843.30
2023-03-24T22:52:12.288Z,98840.33
2023-03-24T22:54:40.408Z,98848.21
2023-03-24T22:57:07.795Z,98861.63
2023-03-24T22:59:35.729Z,98870.66
2023-03-24T23:02:09.977Z,98878.02
2023-03-24T23:04:40.619Z,98883.61
2023-03-24T23:07:08.215Z,98880.73
2023-03-24T23:09:36.626Z,98874.52
2023-03-24T23:12:04.267Z,98866.38
2023-03-24T23:14:31.890Z,98874.98
2023-03-24T23:16:59.012Z,98883.09
2023-03-24T23:19:26.141Z,98872.04
2023-03-24T23:21:53.561Z,98865.05
2023-03-24T23:24:20.674Z,98863.87
2023-03-24T23:26:47.905Z,98866.39
2023-03-24T23:29:17.968Z,98870.98
2023-03-24T23:31:45.048Z,98870.19
2023-03-24T23:34:13.754Z,98868.18
2023-03-24T23:36:45.172Z,98871.39
2023-03-24T23:39:12.587Z,98872.12
2023-03-24T23:41:39.797Z,98873.21
2023-03-24T23:44:07.200Z,98871.96
2023-03-24T23:46:34.391Z,98872.91
2023-03-24T23:49:01.559Z,98879.27
2023-03-24T23:51:29.174Z,98880.10
2023-03-24T23:53:56.302Z,98872.50
2023-03-24T23:56:23.383Z,98877.52
2023-03-24T23:58:50.527Z,98868.19
